Time;durP1;ratioP1;P1;durP2;ratioP2;P2;SDS_P1;SDS_P2;PMS_P1;PMS_P2;Temp;Humidity;BMP_temperature;BMP_pressure;BME280_temperature;BME280_humidity;BME280_pressure;Samples;Min_cycle;Max_cycle;Signal;HPM_P1;HPM_P2
2022/09/12 00:00:15;;;;;;;7.75;6.85;;;15.10;99.90;;;;;;5073068;28;20611;-72
2022/09/12 00:02:42;;;;;;;7.35;6.65;;;15.10;99.90;;;;;;5065076;28;20630;-71
2022/09/12 00:05:09;;;;;;;8.60;7.80;;;15.10;99.90;;;;;;5070274;28;20281;-72
2022/09/12 00:07:37;;;;;;;8.45;7.75;;;15.10;99.90;;;;;;5066208;28;20216;-73
2022/09/12 00:10:05;;;;;;;8.52;7.75;;;15.10;99.90;;;;;;5072423;28;20724;-74
2022/09/12 00:12:33;;;;;;;8.43;6.18;;;15.10;99.90;;;;;;5071708;28;20293;-72
2022/09/12 00:15:00;;;;;;;9.48;8.57;;;15.10;99.90;;;;;;5073249;28;20600;-73
2022/09/12 00:17:27;;;;;;;9.20;8.18;;;15.00;99.90;;;;;;5072307;28;20711;-71
2022/09/12 00:19:54;;;;;;;6.80;6.20;;;15.00;99.90;;;;;;5077773;28;20195;-71
2022/09/12 00:22:21;;;;;;;8.30;7.47;;;15.00;99.90;;;;;;5074013;28;20229;-75
2022/09/12 00:24:49;;;;;;;9.73;7.00;;;15.00;99.90;;;;;;5073747;28;20614;-73
2022/09/12 00:27:16;;;;;;;8.98;8.07;;;15.00;99.90;;;;;;5068269;28;20315;-74
2022/09/12 00:29:43;;;;;;;15.45;8.82;;;15.00;99.90;;;;;;5066930;28;20226;-72
2022/09/12 00:32:10;;;;;;;7.47;6.78;;;14.90;99.90;;;;;;5082113;28;20205;-75
2022/09/12 00:34:37;;;;;;;10.10;8.30;;;14.90;99.90;;;;;;5070381;28;20294;-73
2022/09/12 00:37:06;;;;;;;10.63;9.48;;;15.00;99.90;;;;;;5068711;28;20305;-71
2022/09/12 00:39:33;;;;;;;11.38;10.27;;;14.90;99.90;;;;;;5070270;28;20568;-72
2022/09/12 00:42:02;;;;;;;10.02;8.98;;;14.90;99.90;;;;;;5072892;28;20282;-70
2022/09/12 00:44:50;;;;;;;10.13;9.13;;;14.90;99.90;;;;;;5068250;28;20226;-72
2022/09/12 00:47:22;;;;;;;10.70;9.60;;;14.90;99.90;;;;;;5064892;28;20638;-76
2022/09/12 00:49:54;;;;;;;12.20;8.85;;;15.00;99.90;;;;;;5070409;28;20203;-72
2022/09/12 00:52:27;;;;;;;9.63;8.73;;;14.90;99.90;;;;;;5068891;28;20260;-74
2022/09/12 00:54:57;;;;;;;11.30;10.20;;;14.90;99.90;;;;;;5080901;28;20285;-70
2022/09/12 00:57:30;;;;;;;10.80;9.70;;;14.90;99.90;;;;;;5074487;28;20759;-71
2022/09/12 01:00:00;;;;;;;9.93;8.70;;;14.90;99.90;;;;;;5061573;28;20195;-73
2022/09/12 01:02:28;;;;;;;9.20;8.30;;;14.90;99.90;;;;;;5069442;28;20227;-72
2022/09/12 01:04:55;;;;;;;10.52;9.50;;;14.90;99.90;;;;;;5065353;28;20676;-71
2022/09/12 01:07:25;;;;;;;10.82;9.82;;;14.90;99.90;;;;;;5076361;28;20227;-70
2022/09/12 01:09:52;;;;;;;11.65;10.55;;;14.80;99.90;;;;;;5072027;28;20295;-73
2022/09/12 01:12:20;;;;;;;15.10;11.38;;;14.80;99.90;;;;;;5075176;28;20231;-72
2022/09/12 01:14:48;;;;;;;13.60;12.30;;;14.70;99.90;;;;;;5070876;28;20279;-75
2022/09/12 01:17:16;;;;;;;14.10;12.70;;;14.70;99.90;;;;;;5072705;28;20309;-75
2022/09/12 01:20:15;;;;;;;13.70;11.82;;;14.60;99.90;;;;;;5063961;28;20567;-74
2022/09/12 01:23:10;;;;;;;13.85;12.55;;;14.60;99.90;;;;;;5057768;28;20700;-72
2022/09/12 01:25:49;;;;;;;12.63;11.43;;;14.60;99.90;;;;;;5069237;28;20254;-71
2022/09/12 01:28:35;;;;;;;13.20;11.90;;;14.50;99.90;;;;;;5077169;28;20223;-73
2022/09/12 01:31:06;;;;;;;14.88;13.50;;;14.40;99.90;;;;;;5078097;28;20198;-69
2022/09/12 01:33:51;;;;;;;15.00;13.55;;;14.40;99.90;;;;;;5071561;28;20291;-74
2022/09/12 01:36:34;;;;;;;13.68;12.45;;;14.40;99.90;;;;;;5059909;28;20222;-73
2022/09/12 01:39:04;;;;;;;15.23;12.95;;;14.40;99.90;;;;;;5062794;28;20678;-73
2022/09/12 01:41:39;;;;;;;13.32;11.95;;;14.40;99.90;;;;;;5071581;28;20263;-72
2022/09/12 01:44:13;;;;;;;14.63;13.23;;;14.40;99.90;;;;;;5071232;28;20652;-74
2022/09/12 01:46:47;;;;;;;13.43;12.23;;;14.40;99.90;;;;;;5070511;28;20681;-71
2022/09/12 01:49:18;;;;;;;13.65;11.13;;;14.30;99.90;;;;;;5066687;28;20205;-72
2022/09/12 01:51:52;;;;;;;12.52;11.27;;;14.40;99.90;;;;;;5064115;28;20207;-72
2022/09/12 01:54:25;;;;;;;13.52;12.32;;;14.40;99.90;;;;;;5066378;28;20238;-72
2022/09/12 01:56:57;;;;;;;12.40;11.20;;;14.40;99.90;;;;;;5065322;28;20559;-71
2022/09/12 01:59:29;;;;;;;17.73;15.93;;;14.40;99.90;;;;;;5068399;28;20286;-73
2022/09/12 02:02:02;;;;;;;16.63;15.05;;;14.40;99.90;;;;;;5070477;28;20195;-73
2022/09/12 02:04:31;;;;;;;16.63;15.02;;;14.30;99.90;;;;;;5069876;28;20674;-72
2022/09/12 02:07:06;;;;;;;17.75;15.95;;;14.30;99.90;;;;;;5072235;28;20215;-72
2022/09/12 02:09:37;;;;;;;16.05;14.52;;;14.30;99.90;;;;;;5067624;28;20212;-75
2022/09/12 02:12:07;;;;;;;17.27;15.55;;;14.20;99.90;;;;;;5069943;28;20649;-74
2022/09/12 02:14:40;;;;;;;19.10;17.27;;;14.20;99.90;;;;;;5072124;28;20203;-75
2022/09/12 02:17:13;;;;;;;17.67;15.80;;;14.20;99.90;;;;;;5076864;28;20232;-73
2022/09/12 02:19:45;;;;;;;17.42;15.77;;;14.20;99.90;;;;;;5074921;28;20302;-71
2022/09/12 02:22:15;;;;;;;15.73;14.13;;;14.20;99.90;;;;;;5068126;28;20226;-73
2022/09/12 02:24:46;;;;;;;15.40;13.77;;;14.30;99.90;;;;;;5064282;28;20568;-73
2022/09/12 02:27:16;;;;;;;13.80;12.50;;;14.30;99.90;;;;;;5070073;28;20227;-72
2022/09/12 02:29:44;;;;;;;15.20;13.80;;;14.40;99.90;;;;;;5062212;28;20215;-71
2022/09/12 02:32:21;;;;;;;15.75;14.20;;;14.30;99.90;;;;;;5075074;28;20592;-70
2022/09/12 02:34:55;;;;;;;15.85;14.35;;;14.30;99.90;;;;;;5069080;28;20289;-72
2022/09/12 02:37:30;;;;;;;16.73;14.98;;;14.30;99.90;;;;;;5064638;28;20659;-73
2022/09/12 02:39:58;;;;;;;14.32;12.90;;;14.30;99.90;;;;;;5073348;28;20194;-71
2022/09/12 02:42:26;;;;;;;18.80;16.80;;;14.30;99.90;;;;;;5072708;28;20264;-72
2022/09/12 02:44:55;;;;;;;17.05;14.65;;;14.20;99.90;;;;;;5083948;28;20285;-74
2022/09/12 02:47:32;;;;;;;19.60;17.63;;;14.20;99.90;;;;;;5079577;28;20215;-73
2022/09/12 02:50:00;;;;;;;19.42;17.42;;;14.30;99.90;;;;;;5065034;28;20293;-74
2022/09/12 02:52:28;;;;;;;18.02;16.13;;;14.20;99.90;;;;;;5072833;28;20212;-73
2022/09/12 02:54:57;;;;;;;19.33;17.50;;;14.20;99.90;;;;;;5072488;28;20213;-74
2022/09/12 02:57:24;;;;;;;15.90;14.32;;;14.20;99.90;;;;;;5085415;28;20298;-72
2022/09/12 02:59:54;;;;;;;20.67;18.67;;;14.30;99.90;;;;;;5081132;28;20285;-75
2022/09/12 03:02:32;;;;;;;16.88;15.27;;;14.20;99.90;;;;;;5072266;28;20209;-75
2022/09/12 03:05:15;;;;;;;18.38;16.30;;;14.20;99.90;;;;;;5069701;28;20249;-74
2022/09/12 03:08:00;;;;;;;18.77;16.98;;;14.20;99.90;;;;;;5065643;28;20215;-71
2022/09/12 03:10:37;;;;;;;23.83;18.23;;;14.30;99.90;;;;;;5069739;28;20294;-75
2022/09/12 03:13:15;;;;;;;21.52;16.67;;;14.20;99.90;;;;;;5061324;28;20293;-70
2022/09/12 03:15:51;;;;;;;19.92;17.95;;;14.20;99.90;;;;;;5069739;28;20225;-74
2022/09/12 03:18:37;;;;;;;20.65;18.65;;;14.20;99.90;;;;;;5070239;28;20325;-71
2022/09/12 03:21:12;;;;;;;21.02;17.30;;;14.20;99.90;;;;;;5070983;28;20283;-72
2022/09/12 03:23:44;;;;;;;22.88;20.58;;;14.10;99.90;;;;;;5066582;28;20328;-73
2022/09/12 03:26:18;;;;;;;24.00;21.60;;;14.10;99.90;;;;;;5070244;28;20226;-74
2022/09/12 03:28:46;;;;;;;23.40;19.38;;;14.10;99.90;;;;;;5066301;28;20191;-74
2022/09/12 03:31:14;;;;;;;22.48;20.27;;;14.00;99.90;;;;;;5070307;28;20203;-70
2022/09/12 03:33:43;;;;;;;25.30;20.63;;;14.00;99.90;;;;;;5065357;28;20199;-74
2022/09/12 03:36:16;;;;;;;20.50;18.02;;;14.00;99.90;;;;;;5067320;28;20264;-71
2022/09/12 03:38:43;;;;;;;25.48;21.23;;;14.00;99.90;;;;;;5069745;28;20273;-74
2022/09/12 03:41:10;;;;;;;23.58;21.17;;;14.00;99.90;;;;;;5069640;28;20654;-74
2022/09/12 03:43:37;;;;;;;23.98;21.58;;;13.90;99.90;;;;;;5087366;28;20235;-74
2022/09/12 03:46:04;;;;;;;26.55;22.38;;;13.90;99.90;;;;;;5071850;28;20231;-74
2022/09/12 03:48:31;;;;;;;21.17;19.05;;;13.90;99.90;;;;;;5072589;28;20241;-71
2022/09/12 03:51:04;;;;;;;26.80;24.10;;;13.90;99.90;;;;;;5066087;28;20206;-74
2022/09/12 03:53:32;;;;;;;27.05;23.42;;;13.90;99.90;;;;;;5076842;28;20669;-73
2022/09/12 03:55:59;;;;;;;26.52;22.88;;;13.90;99.90;;;;;;5067849;28;20203;-75
2022/09/12 03:58:30;;;;;;;23.88;21.30;;;13.90;99.90;;;;;;5074084;28;20264;-73
2022/09/12 04:00:57;;;;;;;27.00;23.65;;;13.90;99.90;;;;;;5074051;28;20613;-72
2022/09/12 04:03:24;;;;;;;26.20;23.50;;;13.80;99.90;;;;;;5070038;28;20279;-76
2022/09/12 04:05:51;;;;;;;27.10;23.50;;;13.80;99.90;;;;;;5067037;28;20660;-72
2022/09/12 04:08:19;;;;;;;30.60;23.90;;;13.80;99.90;;;;;;5068875;28;20261;-75
2022/09/12 04:10:46;;;;;;;24.38;21.95;;;13.80;99.90;;;;;;5069567;28;20223;-75
2022/09/12 04:13:13;;;;;;;28.60;24.90;;;13.80;99.90;;;;;;5073747;28;20219;-72
2022/09/12 04:15:40;;;;;;;24.73;22.23;;;13.70;99.90;;;;;;5068359;28;20722;-73
2022/09/12 04:18:07;;;;;;;32.50;25.48;;;13.80;99.90;;;;;;5073020;28;20269;-73
2022/09/12 04:20:36;;;;;;;31.15;26.48;;;13.80;99.90;;;;;;5083333;28;20206;-75
2022/09/12 04:23:02;;;;;;;28.02;25.02;;;13.70;99.90;;;;;;5076936;28;20725;-72
2022/09/12 04:25:31;;;;;;;28.58;25.52;;;13.60;99.90;;;;;;5081356;28;20198;-72
2022/09/12 04:27:58;;;;;;;27.73;25.13;;;13.60;99.90;;;;;;5072952;28;20215;-74
2022/09/12 04:30:26;;;;;;;24.02;21.65;;;13.70;99.90;;;;;;5058972;28;20240;-72
2022/09/12 04:32:53;;;;;;;28.30;25.40;;;13.70;99.90;;;;;;5071704;28;20256;-72
2022/09/12 04:35:20;;;;;;;24.98;22.25;;;13.70;99.90;;;;;;5070831;28;20292;-73
2022/09/12 04:37:46;;;;;;;25.95;23.33;;;13.70;99.90;;;;;;5071881;28;20225;-74
2022/09/12 04:40:13;;;;;;;28.70;25.70;;;13.70;99.90;;;;;;5072056;28;20210;-72
2022/09/12 04:42:42;;;;;;;28.17;23.85;;;13.80;99.90;;;;;;5075906;28;20659;-73
2022/09/12 04:45:11;;;;;;;26.13;23.45;;;13.70;99.90;;;;;;5077646;28;20397;-72
2022/09/12 04:47:38;;;;;;;30.33;25.35;;;13.70;99.90;;;;;;5083804;28;20218;-71
2022/09/12 04:50:08;;;;;;;26.67;23.98;;;13.70;99.90;;;;;;5077804;28;20652;-73
2022/09/12 04:52:35;;;;;;;24.38;21.98;;;13.70;99.90;;;;;;5073991;28;20277;-75
2022/09/12 04:55:02;;;;;;;24.95;22.25;;;13.80;99.90;;;;;;5067579;28;20640;-74
2022/09/12 04:57:29;;;;;;;26.15;23.55;;;13.80;99.90;;;;;;5061393;28;20270;-73
2022/09/12 04:59:57;;;;;;;30.90;27.65;;;13.80;99.90;;;;;;5068227;28;20290;-76
2022/09/12 05:02:24;;;;;;;32.25;28.65;;;13.70;99.90;;;;;;5063963;28;20241;-73
2022/09/12 05:04:51;;;;;;;31.88;27.00;;;13.70;99.90;;;;;;5073151;28;20230;-70
2022/09/12 05:07:18;;;;;;;30.75;27.23;;;13.70;99.90;;;;;;5065973;28;20224;-72
2022/09/12 05:09:46;;;;;;;30.05;26.90;;;13.80;99.90;;;;;;5070239;28;20210;-73
2022/09/12 05:12:13;;;;;;;27.13;24.27;;;13.70;99.90;;;;;;5062124;28;20199;-73
2022/09/12 05:14:40;;;;;;;26.20;23.52;;;13.80;99.90;;;;;;5063403;28;20237;-72
2022/09/12 05:17:08;;;;;;;23.70;21.23;;;13.80;99.90;;;;;;5074069;28;20281;-73
2022/09/12 05:19:35;;;;;;;27.38;24.67;;;13.90;99.90;;;;;;5076645;28;20335;-73
2022/09/12 05:22:03;;;;;;;24.67;22.25;;;13.90;99.90;;;;;;5066021;28;20274;-74
2022/09/12 05:24:31;;;;;;;26.92;24.13;;;13.80;99.90;;;;;;5074564;28;20210;-74
2022/09/12 05:26:58;;;;;;;23.65;21.25;;;13.80;99.90;;;;;;5073185;28;20218;-73
2022/09/12 05:29:25;;;;;;;26.42;23.80;;;13.80;99.90;;;;;;5070183;28;20670;-73
2022/09/12 05:31:52;;;;;;;25.80;23.20;;;13.90;99.90;;;;;;5067757;28;20238;-72
2022/09/12 05:34:21;;;;;;;22.15;19.95;;;14.00;99.90;;;;;;5080345;28;20210;-74
2022/09/12 05:36:48;;;;;;;22.10;19.75;;;14.00;99.90;;;;;;5075635;28;20711;-73
2022/09/12 05:39:15;;;;;;;24.77;22.00;;;14.20;99.90;;;;;;5076271;28;20222;-73
2022/09/12 05:41:42;;;;;;;22.50;20.25;;;14.20;99.90;;;;;;5075154;28;20276;-72
2022/09/12 05:44:13;;;;;;;23.92;20.50;;;14.20;99.90;;;;;;5084042;28;20233;-72
2022/09/12 05:46:42;;;;;;;20.38;18.42;;;14.30;99.90;;;;;;5087602;28;20229;-74
2022/09/12 05:49:13;;;;;;;22.05;19.85;;;14.40;99.90;;;;;;5085189;28;20273;-76
2022/09/12 05:51:43;;;;;;;23.75;21.55;;;14.50;99.90;;;;;;5075224;28;20252;-73
2022/09/12 05:54:14;;;;;;;20.05;18.15;;;14.60;99.90;;;;;;5078172;28;20207;-75
2022/09/12 05:56:44;;;;;;;21.35;19.10;;;14.60;99.90;;;;;;5089761;28;20247;-73
2022/09/12 05:59:13;;;;;;;16.80;15.02;;;14.90;99.90;;;;;;5077618;28;20215;-73
2022/09/12 06:01:41;;;;;;;19.98;18.00;;;15.10;99.90;;;;;;5074866;28;20203;-74
2022/09/12 06:04:08;;;;;;;18.42;16.27;;;15.40;99.90;;;;;;5083322;28;20267;-73
2022/09/12 06:06:38;;;;;;;13.90;12.40;;;16.00;99.90;;;;;;5075399;28;20253;-70
2022/09/12 06:09:07;;;;;;;12.97;11.83;;;16.80;99.90;;;;;;5078166;28;20534;-72
2022/09/12 06:11:36;;;;;;;10.60;9.50;;;17.80;99.90;;;;;;5074433;28;20971;-73
2022/09/12 06:14:03;;;;;;;14.13;12.77;;;18.80;99.90;;;;;;5072287;28;20453;-72
2022/09/12 06:16:32;;;;;;;12.40;11.07;;;19.60;99.90;;;;;;5073842;28;20912;-72
2022/09/12 06:19:01;;;;;;;11.03;9.90;;;20.20;99.90;;;;;;5073330;28;20487;-74
2022/09/12 06:21:29;;;;;;;11.33;10.33;;;21.00;99.90;;;;;;5073446;28;20440;-72
2022/09/12 06:23:57;;;;;;;13.30;12.00;;;21.40;99.90;;;;;;5075412;28;20453;-72
2022/09/12 06:26:26;;;;;;;12.37;11.17;;;22.00;99.90;;;;;;5074989;28;20844;-72
2022/09/12 06:28:55;;;;;;;10.87;9.77;;;22.20;99.90;;;;;;5075427;28;20441;-73
2022/09/12 06:31:25;;;;;;;11.60;10.50;;;22.60;99.90;;;;;;5075233;28;20449;-74
2022/09/12 06:34:01;;;;;;;12.73;11.60;;;23.00;99.90;;;;;;5076469;28;20439;-77
2022/09/12 06:36:33;;;;;;;10.03;9.13;;;23.30;99.40;;;;;;5091248;28;20460;-71
2022/09/12 06:39:01;;;;;;;11.03;10.00;;;23.60;99.10;;;;;;5083518;28;20469;-73
2022/09/12 06:41:31;;;;;;;10.23;9.33;;;23.80;98.30;;;;;;5075817;28;20445;-75
2022/09/12 06:44:00;;;;;;;14.70;11.43;;;24.00;98.00;;;;;;5076153;28;20540;-75
2022/09/12 06:46:27;;;;;;;11.90;10.40;;;24.10;96.90;;;;;;5069578;28;20444;-75
2022/09/12 06:48:56;;;;;;;11.97;10.77;;;24.40;96.30;;;;;;5072660;28;20518;-73
2022/09/12 06:51:23;;;;;;;12.20;11.10;;;24.70;95.60;;;;;;5067247;28;20441;-73
2022/09/12 06:53:51;;;;;;;12.10;11.00;;;24.80;95.10;;;;;;5074584;28;20444;-74
2022/09/12 06:56:20;;;;;;;13.80;12.50;;;24.90;94.80;;;;;;5070910;28;20471;-75
2022/09/12 06:58:50;;;;;;;13.00;11.13;;;24.60;94.70;;;;;;5073655;28;20514;-74
2022/09/12 07:01:19;;;;;;;11.60;10.60;;;24.80;95.10;;;;;;5075315;28;20444;-75
2022/09/12 07:03:48;;;;;;;18.43;14.73;;;25.50;94.30;;;;;;5069877;28;20516;-74
2022/09/12 07:06:17;;;;;;;15.33;13.40;;;25.50;93.90;;;;;;5074915;28;20449;-75
2022/09/12 07:08:44;;;;;;;14.43;13.07;;;25.60;94.00;;;;;;5068310;28;20450;-75
2022/09/12 07:11:14;;;;;;;15.57;14.17;;;25.90;93.10;;;;;;5071570;28;20948;-74
2022/09/12 07:13:42;;;;;;;15.63;14.00;;;26.30;92.70;;;;;;5077329;28;20432;-71
2022/09/12 07:16:11;;;;;;;14.70;13.20;;;26.20;93.00;;;;;;5071019;28;20482;-72
2022/09/12 07:18:39;;;;;;;18.70;13.03;;;26.30;92.60;;;;;;5075807;28;20480;-76
2022/09/12 07:21:08;;;;;;;15.93;13.27;;;26.40;92.50;;;;;;5081693;28;20527;-73
2022/09/12 07:23:35;;;;;;;19.23;17.23;;;26.70;92.20;;;;;;5074612;28;20544;-75
2022/09/12 07:26:03;;;;;;;16.17;14.47;;;26.50;92.10;;;;;;5074290;28;20456;-74
2022/09/12 07:28:32;;;;;;;19.53;17.30;;;26.40;92.60;;;;;;5073014;28;20518;-74
2022/09/12 07:31:06;;;;;;;21.20;19.10;;;26.40;92.60;;;;;;5074315;28;20441;-74
2022/09/12 07:33:35;;;;;;;19.80;17.90;;;26.40;92.10;;;;;;5067760;28;20449;-74
2022/09/12 07:36:02;;;;;;;19.50;17.40;;;26.60;92.40;;;;;;5074081;28;20480;-75
2022/09/12 07:38:29;;;;;;;19.80;17.33;;;27.20;91.80;;;;;;5074004;28;21088;-76
2022/09/12 07:40:57;;;;;;;22.70;20.40;;;27.70;91.00;;;;;;5067840;28;20521;-72
2022/09/12 07:43:25;;;;;;;20.63;18.40;;;27.40;90.40;;;;;;5074208;28;20548;-73
2022/09/12 07:45:55;;;;;;;21.07;18.90;;;27.50;90.70;;;;;;5073400;28;20465;-74
2022/09/12 07:48:22;;;;;;;21.30;18.70;;;27.50;90.70;;;;;;5074148;28;20473;-75
2022/09/12 07:50:59;;;;;;;24.33;21.77;;;27.70;90.70;;;;;;5067133;28;20443;-73
2022/09/12 07:53:27;;;;;;;23.27;20.17;;;27.70;90.40;;;;;;5080015;28;20536;-73
2022/09/12 07:55:55;;;;;;;24.50;17.43;;;27.60;90.10;;;;;;5074416;28;20532;-75
2022/09/12 07:58:22;;;;;;;20.60;18.40;;;28.20;90.10;;;;;;5073595;28;20572;-75
2022/09/12 08:00:49;;;;;;;21.47;18.43;;;28.20;89.40;;;;;;5074634;28;20502;-74
2022/09/12 08:03:16;;;;;;;22.33;18.50;;;28.10;89.70;;;;;;5074183;28;20943;-76
2022/09/12 08:05:43;;;;;;;22.93;20.20;;;28.00;89.40;;;;;;5062731;28;20445;-73
2022/09/12 08:08:12;;;;;;;20.40;18.20;;;28.00;89.80;;;;;;5068732;28;20457;-74
2022/09/12 08:10:39;;;;;;;20.50;18.13;;;27.80;90.10;;;;;;5070829;28;21007;-74
2022/09/12 08:13:06;;;;;;;21.97;19.87;;;27.10;90.50;;;;;;5077414;28;20499;-74
2022/09/12 08:15:35;;;;;;;19.67;17.77;;;26.10;92.00;;;;;;5077598;28;20448;-75
2022/09/12 08:18:02;;;;;;;19.83;17.43;;;25.70;93.20;;;;;;5069545;28;20511;-70
2022/09/12 08:20:29;;;;;;;22.40;20.13;;;25.10;94.50;;;;;;5074861;28;20504;-72
2022/09/12 08:22:56;;;;;;;22.00;18.77;;;24.60;95.70;;;;;;5089403;28;20440;-73
2022/09/12 08:25:25;;;;;;;23.50;18.83;;;24.30;96.90;;;;;;5087741;28;20483;-73
2022/09/12 08:27:52;;;;;;;22.97;20.30;;;24.30;97.80;;;;;;5096531;28;20855;-74
2022/09/12 08:30:19;;;;;;;20.03;18.03;;;24.10;97.80;;;;;;5071202;28;20456;-74
2022/09/12 08:32:46;;;;;;;21.57;17.43;;;23.90;98.80;;;;;;5073262;28;20473;-74
2022/09/12 08:35:14;;;;;;;22.00;19.37;;;23.80;99.10;;;;;;5075246;28;20515;-74
2022/09/12 08:37:41;;;;;;;24.10;21.50;;;23.40;99.80;;;;;;5073462;28;20476;-73
2022/09/12 08:40:15;;;;;;;21.07;18.23;;;23.10;99.90;;;;;;5069132;28;20477;-71
2022/09/12 08:42:54;;;;;;;24.10;18.73;;;23.20;99.90;;;;;;5069759;28;20531;-75
2022/09/12 08:45:26;;;;;;;25.43;19.37;;;23.30;99.90;;;;;;5071917;28;20442;-72
2022/09/12 08:47:55;;;;;;;21.30;17.90;;;23.10;99.90;;;;;;5068675;28;20530;-75
2022/09/12 08:50:22;;;;;;;23.07;19.10;;;23.00;99.90;;;;;;5073084;28;20527;-75
2022/09/12 08:52:54;;;;;;;22.83;20.27;;;23.20;99.90;;;;;;5065329;28;20448;-73
2022/09/12 08:55:32;;;;;;;20.30;18.17;;;23.20;99.90;;;;;;5073509;28;20448;-72
2022/09/12 08:58:07;;;;;;;21.03;18.90;;;23.30;99.90;;;;;;5067980;28;20476;-75
2022/09/12 09:00:42;;;;;;;21.13;18.63;;;23.30;99.90;;;;;;5074760;28;20491;-74
2022/09/12 09:03:38;;;;;;;25.60;19.90;;;23.50;99.90;;;;;;5065496;28;20465;-77
2022/09/12 09:06:14;;;;;;;18.63;16.40;;;23.70;99.90;;;;;;5073015;28;20536;-74
2022/09/12 09:08:49;;;;;;;25.97;22.20;;;23.90;99.90;;;;;;5073747;28;20515;-73
2022/09/12 09:11:27;;;;;;;19.93;17.90;;;24.00;99.60;;;;;;5074628;28;20441;-75
2022/09/12 09:16:57;;;;;;;19.17;17.07;;;24.50;99.00;;;;;;5059159;28;20544;-75
2022/09/12 09:19:28;;;;;;;20.37;18.27;;;24.60;98.60;;;;;;5071515;28;20476;-76
2022/09/12 09:22:01;;;;;;;21.80;19.50;;;24.70;98.10;;;;;;5071805;28;20524;-73
2022/09/12 09:24:33;;;;;;;19.53;16.70;;;25.00;97.70;;;;;;5072803;28;20456;-76
2022/09/12 09:27:05;;;;;;;18.40;16.43;;;25.20;97.20;;;;;;5065124;28;20818;-73
2022/09/12 09:29:40;;;;;;;20.60;18.47;;;25.10;97.00;;;;;;5063176;28;20464;-73
2022/09/12 09:32:15;;;;;;;23.80;18.97;;;25.30;97.10;;;;;;5071704;28;20455;-75
2022/09/12 09:34:43;;;;;;;19.77;16.90;;;25.40;96.70;;;;;;5068369;28;20472;-73
2022/09/12 09:37:16;;;;;;;21.03;18.83;;;25.30;96.10;;;;;;5074465;28;20906;-74
2022/09/12 09:39:56;;;;;;;23.47;18.57;;;25.30;96.20;;;;;;5067931;28;20479;-76
2022/09/12 09:42:34;;;;;;;21.00;18.70;;;25.20;96.60;;;;;;5075752;28;20474;-73
2022/09/12 09:45:13;;;;;;;21.10;18.53;;;24.90;96.80;;;;;;5071226;28;20452;-73
2022/09/12 09:47:40;;;;;;;19.40;17.30;;;24.80;97.20;;;;;;5063954;28;20809;-76
2022/09/12 09:50:12;;;;;;;21.20;17.57;;;25.00;97.40;;;;;;5066236;28;20479;-75
2022/09/12 09:52:39;;;;;;;17.73;14.40;;;25.10;97.10;;;;;;5066090;28;20796;-76
2022/09/12 09:55:14;;;;;;;19.70;15.37;;;24.90;96.60;;;;;;5071236;28;20525;-72
2022/09/12 09:57:43;;;;;;;17.47;15.57;;;25.00;96.10;;;;;;5066891;28;20966;-73
2022/09/12 10:00:32;;;;;;;16.80;14.27;;;24.80;96.20;;;;;;5072303;28;20472;-72
2022/09/12 10:03:06;;;;;;;17.73;14.93;;;24.60;96.80;;;;;;5069964;28;20453;-73
2022/09/12 10:05:37;;;;;;;20.23;17.40;;;24.80;96.70;;;;;;5055832;28;20524;-76
2022/09/12 10:08:07;;;;;;;15.23;12.80;;;24.60;97.40;;;;;;5069106;28;20560;-72
2022/09/12 10:10:35;;;;;;;16.67;12.77;;;24.40;97.40;;;;;;5065684;28;20457;-77
2022/09/12 10:13:10;;;;;;;13.50;11.33;;;24.40;97.10;;;;;;5071209;28;20617;-75
2022/09/12 10:15:38;;;;;;;12.03;10.83;;;24.50;96.80;;;;;;5067526;28;20452;-75
2022/09/12 10:18:06;;;;;;;10.17;8.90;;;24.40;96.00;;;;;;5080256;28;20461;-75
2022/09/12 10:20:37;;;;;;;10.20;9.17;;;24.40;96.00;;;;;;5072517;28;20500;-75
2022/09/12 10:23:22;;;;;;;11.83;9.70;;;24.40;95.60;;;;;;5082567;28;20651;-71
2022/09/12 10:25:53;;;;;;;12.80;8.90;;;24.40;95.90;;;;;;5071297;28;20455;-73
2022/09/12 10:28:26;;;;;;;9.00;8.13;;;24.50;95.80;;;;;;5074631;28;20950;-72
2022/09/12 10:30:55;;;;;;;11.23;8.40;;;24.40;95.80;;;;;;5068966;28;20445;-75
2022/09/12 10:33:25;;;;;;;11.00;7.77;;;24.30;95.20;;;;;;5074550;28;20536;-75
2022/09/12 10:35:53;;;;;;;14.30;10.73;;;24.50;95.60;;;;;;5075891;28;20937;-74
2022/09/12 10:38:24;;;;;;;12.10;9.10;;;24.70;95.20;;;;;;5074177;28;21037;-74
2022/09/12 10:41:01;;;;;;;13.20;9.10;;;24.80;95.10;;;;;;5068914;28;20576;-74
2022/09/12 10:43:30;;;;;;;9.93;7.83;;;25.00;94.70;;;;;;5080863;28;20465;-75
2022/09/12 10:46:00;;;;;;;11.07;8.10;;;25.00;94.70;;;;;;5079249;28;20552;-74
2022/09/12 10:48:30;;;;;;;8.80;7.90;;;24.90;94.20;;;;;;5070679;28;20492;-74
2022/09/12 10:50:58;;;;;;;10.87;7.90;;;24.80;93.90;;;;;;5068408;28;20449;-74
2022/09/12 10:53:27;;;;;;;10.47;8.50;;;24.70;94.00;;;;;;5076663;28;20569;-75
2022/09/12 10:56:03;;;;;;;11.10;7.00;;;24.60;93.70;;;;;;5072201;28;20519;-74
2022/09/12 10:58:42;;;;;;;15.43;7.97;;;24.60;93.70;;;;;;5069163;28;20464;-74
2022/09/12 11:01:24;;;;;;;10.30;6.63;;;24.40;93.50;;;;;;5064257;28;20451;-76
2022/09/12 11:04:15;;;;;;;7.53;6.83;;;24.20;93.80;;;;;;5068454;28;20472;-74
2022/09/12 11:06:53;;;;;;;5.77;5.23;;;24.20;94.10;;;;;;5079957;28;20959;-72
2022/09/12 11:09:26;;;;;;;8.13;6.77;;;24.40;94.20;;;;;;5058938;28;20475;-75
2022/09/12 11:12:04;;;;;;;6.03;5.10;;;24.60;93.70;;;;;;5064155;28;20445;-74
2022/09/12 11:14:45;;;;;;;10.30;5.00;;;24.90;93.40;;;;;;5070965;28;20864;-75
2022/09/12 11:17:32;;;;;;;6.37;5.63;;;25.10;92.60;;;;;;5076971;28;20481;-76
2022/09/12 11:20:32;;;;;;;8.03;5.60;;;25.10;91.90;;;;;;5070877;28;20504;-75
2022/09/12 11:23:56;;;;;;;6.20;5.00;;;24.90;92.10;;;;;;5059834;28;20874;-77
2022/09/12 11:26:39;;;;;;;6.50;5.47;;;25.30;91.90;;;;;;5019840;28;20534;-75
2022/09/12 11:29:34;;;;;;;5.43;4.80;;;25.30;91.00;;;;;;5015317;28;20450;-74
2022/09/12 11:32:30;;;;;;;5.47;4.97;;;25.20;90.90;;;;;;5067129;28;20472;-72
2022/09/12 11:35:07;;;;;;;4.93;4.13;;;25.20;90.90;;;;;;5071126;28;20503;-74
2022/09/12 11:37:59;;;;;;;5.53;3.60;;;25.30;91.40;;;;;;5073197;28;20564;-75
2022/09/12 11:40:31;;;;;;;5.23;4.70;;;25.40;90.30;;;;;;5070909;28;20505;-73
2022/09/12 11:43:05;;;;;;;6.70;4.77;;;25.60;89.60;;;;;;5073026;28;20960;-75
2022/09/12 11:45:39;;;;;;;5.37;3.93;;;25.70;88.70;;;;;;5074268;28;20524;-72
2022/09/12 11:48:12;;;;;;;5.20;3.73;;;25.60;88.30;;;;;;5066360;28;20521;-73
2022/09/12 11:50:41;;;;;;;4.53;3.53;;;25.20;89.50;;;;;;5073626;28;20449;-73
2022/09/12 11:53:19;;;;;;;6.10;4.20;;;25.40;90.10;;;;;;5075006;28;20503;-73
2022/09/12 11:55:53;;;;;;;4.70;4.27;;;25.30;89.40;;;;;;5069226;28;20441;-76
2022/09/12 11:58:24;;;;;;;5.53;3.40;;;25.20;89.90;;;;;;5071308;28;20463;-74
2022/09/12 12:00:56;;;;;;;5.90;4.43;;;25.50;89.00;;;;;;5065838;28;20485;-75
2022/09/12 12:03:31;;;;;;;4.33;3.73;;;25.60;88.50;;;;;;5073593;28;20485;-73
2022/09/12 12:06:04;;;;;;;5.57;4.47;;;25.60;88.30;;;;;;5067602;28;20445;-76
2022/09/12 12:08:32;;;;;;;5.57;3.47;;;25.60;88.10;;;;;;5074724;28;20873;-76
2022/09/12 12:11:01;;;;;;;4.30;3.20;;;25.60;88.20;;;;;;5073197;28;20484;-73
2022/09/12 12:13:32;;;;;;;3.63;3.27;;;25.90;88.00;;;;;;5072164;28;20452;-74
2022/09/12 12:16:03;;;;;;;6.97;3.37;;;26.10;86.50;;;;;;5081525;28;20475;-75
2022/09/12 12:18:33;;;;;;;8.40;4.47;;;25.60;86.10;;;;;;5076649;28;20457;-71
2022/09/12 12:24:14;;;;;;;4.53;3.47;;;25.50;86.80;;;;;;5092966;27;20507;-73
2022/09/12 12:26:46;;;;;;;3.47;3.17;;;25.60;86.50;;;;;;5083630;28;20543;-75
2022/09/12 12:29:35;;;;;;;3.77;2.57;;;25.50;86.40;;;;;;5075619;28;20949;-72
2022/09/12 12:32:25;;;;;;;2.83;2.40;;;25.50;85.90;;;;;;5067216;28;20445;-72
2022/09/12 12:35:22;;;;;;;4.70;2.67;;;25.60;84.90;;;;;;5066264;28;20476;-76
2022/09/12 12:37:52;;;;;;;3.20;2.40;;;25.60;86.10;;;;;;5042305;28;20560;-74
2022/09/12 12:40:28;;;;;;;2.70;2.13;;;25.30;85.20;;;;;;5066374;28;20449;-73
2022/09/12 12:43:05;;;;;;;3.47;2.50;;;25.20;86.50;;;;;;5075329;28;20481;-71
2022/09/12 12:46:04;;;;;;;4.60;2.57;;;25.10;85.20;;;;;;5075803;28;20473;-74
2022/09/12 12:48:48;;;;;;;3.87;3.17;;;25.30;83.90;;;;;;5080858;28;20465;-72
2022/09/12 12:51:31;;;;;;;4.77;2.23;;;25.30;83.00;;;;;;5072671;28;20475;-71
2022/09/12 12:54:02;;;;;;;3.40;2.20;;;25.30;83.50;;;;;;5067997;28;21019;-75
2022/09/12 12:56:38;;;;;;;3.90;2.10;;;25.30;83.60;;;;;;5081387;28;20510;-72
2022/09/12 12:59:15;;;;;;;5.13;2.20;;;25.30;83.80;;;;;;5078876;28;20452;-72